Time;durP1;ratioP1;P1;durP2;ratioP2;P2;SDS_P1;SDS_P2;PMS_P1;PMS_P2;Temp;Humidity;BMP_temperature;BMP_pressure;BME280_temperature;BME280_humidity;BME280_pressure;Samples;Min_cycle;Max_cycle;Signal;HPM_P1;HPM_P2
2021/03/08 00:03:51;;;;;;;7.63;1.07;;;;;;;;;;10359539;28;20093;-62
2021/03/08 00:08:48;;;;;;;0.37;0.37;;;;;;;;;;10366175;28;20048;-65
2021/03/08 00:13:46;;;;;;;2.90;1.37;;;;;;;;;;10360363;28;20044;-63
2021/03/08 00:18:43;;;;;;;0.27;0.27;;;;;;;;;;10348827;28;20036;-64
2021/03/08 00:23:41;;;;;;;4.33;1.13;;;;;;;;;;10369689;28;20032;-65
2021/03/08 00:28:38;;;;;;;6.90;0.70;;;;;;;;;;10360559;28;20044;-63
2021/03/08 00:33:35;;;;;;;3.23;2.93;;;;;;;;;;10362115;28;20458;-65
2021/03/08 00:38:33;;;;;;;3.10;0.70;;;;;;;;;;10366012;28;20410;-63
2021/03/08 00:43:30;;;;;;;1.70;0.90;;;;;;;;;;10361039;28;20047;-62
2021/03/08 00:48:27;;;;;;;0.33;0.33;;;;;;;;;;10366880;28;20036;-62
2021/03/08 00:53:25;;;;;;;0.60;0.60;;;;;;;;;;10343849;28;20386;-65
2021/03/08 00:58:24;;;;;;;0.32;0.32;;;;;;;;;;10360044;28;20028;-62
2021/03/08 01:03:23;;;;;;;1.25;0.43;;;;;;;;;;10359955;28;20058;-63
2021/03/08 01:08:24;;;;;;;0.47;0.47;;;;;;;;;;10363317;28;20059;-62
2021/03/08 01:13:24;;;;;;;0.30;0.30;;;;;;;;;;10366272;28;20036;-63
2021/03/08 01:18:24;;;;;;;1.10;0.93;;;;;;;;;;10362176;28;20509;-63
2021/03/08 01:23:21;;;;;;;0.30;0.30;;;;;;;;;;10345146;28;20124;-63
2021/03/08 01:28:18;;;;;;;0.20;0.20;;;;;;;;;;10367213;28;20119;-63
2021/03/08 01:33:16;;;;;;;0.80;0.30;;;;;;;;;;10339429;28;20144;-63
2021/03/08 01:38:13;;;;;;;0.47;0.47;;;;;;;;;;10358090;28;20032;-64
2021/03/08 01:43:11;;;;;;;1.70;0.47;;;;;;;;;;10369615;28;20037;-64
2021/03/08 01:48:08;;;;;;;0.50;0.50;;;;;;;;;;10367259;28;20043;-64
2021/03/08 01:53:07;;;;;;;0.57;0.57;;;;;;;;;;10378210;28;20045;-64
2021/03/08 01:58:04;;;;;;;;;;;;;;;;;;10362479;28;20036;-62
2021/03/08 02:03:02;;;;;;;1.95;0.90;;;;;;;;;;10376214;28;19960;-64
2021/03/08 02:08:00;;;;;;;0.60;0.60;;;;;;;;;;10362366;28;20048;-65
2021/03/08 02:13:17;;;;;;;0.20;0.20;;;;;;;;;;10365107;28;20028;-65
2021/03/08 02:18:37;;;;;;;2.75;1.95;;;;;;;;;;10364556;28;20059;-65
2021/03/08 02:23:44;;;;;;;3.65;0.70;;;;;;;;;;10354051;28;20125;-66
2021/03/08 02:28:44;;;;;;;1.15;1.15;;;;;;;;;;10363311;28;20036;-65
2021/03/08 02:33:51;;;;;;;0.20;0.20;;;;;;;;;;10378592;28;20782;-64
2021/03/08 02:38:51;;;;;;;3.75;0.60;;;;;;;;;;10365048;28;20098;-63
2021/03/08 02:43:51;;;;;;;2.72;1.65;;;;;;;;;;10357834;28;20434;-64
2021/03/08 02:48:51;;;;;;;0.38;0.38;;;;;;;;;;10374047;28;20148;-64
2021/03/08 02:53:49;;;;;;;0.55;0.55;;;;;;;;;;10361412;28;20104;-64
2021/03/08 02:58:49;;;;;;;0.47;0.47;;;;;;;;;;10370260;28;20506;-64
2021/03/08 03:03:49;;;;;;;0.40;0.40;;;;;;;;;;10373877;28;20037;-64
2021/03/08 03:08:47;;;;;;;3.55;1.10;;;;;;;;;;10363369;28;20067;-65
2021/03/08 03:13:45;;;;;;;0.30;0.30;;;;;;;;;;10350026;28;20040;-65
2021/03/08 03:18:47;;;;;;;1.85;0.73;;;;;;;;;;10356051;28;20097;-62
2021/03/08 03:23:47;;;;;;;4.38;1.30;;;;;;;;;;10377889;28;20114;-64
2021/03/08 03:28:45;;;;;;;0.47;0.47;;;;;;;;;;10367151;28;20128;-64
2021/03/08 03:33:44;;;;;;;0.63;0.55;;;;;;;;;;10365086;28;20040;-64
2021/03/08 03:38:41;;;;;;;0.75;0.55;;;;;;;;;;10361092;28;20029;-63
2021/03/08 03:43:39;;;;;;;3.97;0.85;;;;;;;;;;10363550;28;20074;-63
2021/03/08 03:48:37;;;;;;;0.93;0.70;;;;;;;;;;10368344;28;20041;-63
2021/03/08 03:53:34;;;;;;;1.60;0.70;;;;;;;;;;10367211;28;20148;-63
2021/03/08 03:58:36;;;;;;;0.77;0.77;;;;;;;;;;10373553;28;20033;-63
2021/03/08 04:03:53;;;;;;;1.00;0.68;;;;;;;;;;10377223;28;20370;-63
2021/03/08 04:08:54;;;;;;;2.28;0.75;;;;;;;;;;10354045;28;20036;-62
2021/03/08 04:13:51;;;;;;;3.67;0.75;;;;;;;;;;10371900;28;20037;-64
2021/03/08 04:18:50;;;;;;;1.07;0.77;;;;;;;;;;10369398;28;20032;-64
2021/03/08 04:23:48;;;;;;;1.05;0.70;;;;;;;;;;10369274;28;20291;-64
2021/03/08 04:28:46;;;;;;;0.83;0.40;;;;;;;;;;10360791;28;20029;-64
2021/03/08 04:33:44;;;;;;;1.02;0.70;;;;;;;;;;10377196;28;20246;-63
2021/03/08 04:38:42;;;;;;;4.57;0.80;;;;;;;;;;10369694;28;20525;-63
2021/03/08 04:43:42;;;;;;;7.45;1.15;;;;;;;;;;10373678;28;20394;-62
2021/03/08 04:48:40;;;;;;;1.67;0.55;;;;;;;;;;10372015;28;20755;-62
2021/03/08 04:53:37;;;;;;;;;;;;;;;;;;10365397;28;20036;-62
2021/03/08 04:58:35;;;;;;;0.50;0.50;;;;;;;;;;10375246;28;19966;-64
2021/03/08 05:03:36;;;;;;;1.52;1.13;;;;;;;;;;10367258;28;20085;-63
2021/03/08 05:08:34;;;;;;;1.17;1.02;;;;;;;;;;10374110;28;20036;-64
2021/03/08 05:13:34;;;;;;;5.28;1.15;;;;;;;;;;10370755;28;20024;-64
2021/03/08 05:18:32;;;;;;;2.63;1.15;;;;;;;;;;10370179;28;20036;-64
2021/03/08 05:23:30;;;;;;;4.90;1.15;;;;;;;;;;10368965;28;20039;-64
2021/03/08 05:28:27;;;;;;;;;;;;;;;;;;10378101;28;20033;-64
2021/03/08 05:33:28;;;;;;;3.40;1.17;;;;;;;;;;10369996;28;19923;-64
2021/03/08 05:38:27;;;;;;;2.70;1.02;;;;;;;;;;10369576;28;20029;-66
2021/03/08 05:43:26;;;;;;;2.30;0.90;;;;;;;;;;10365134;28;20048;-64
2021/03/08 05:48:40;;;;;;;4.53;1.27;;;;;;;;;;10355878;28;20452;-63
2021/03/08 05:54:02;;;;;;;4.57;1.25;;;;;;;;;;10349569;28;20058;-64
2021/03/08 05:59:07;;;;;;;5.70;1.20;;;;;;;;;;10369153;28;20039;-63
2021/03/08 06:04:07;;;;;;;2.58;0.77;;;;;;;;;;10378220;28;20029;-64
2021/03/08 06:09:21;;;;;;;4.25;1.30;;;;;;;;;;10349712;28;20041;-63
2021/03/08 06:14:20;;;;;;;1.27;0.88;;;;;;;;;;10367098;28;20414;-62
2021/03/08 06:19:17;;;;;;;1.60;0.95;;;;;;;;;;10345639;28;20037;-62
2021/03/08 06:24:15;;;;;;;4.35;1.02;;;;;;;;;;10365964;28;20037;-62
2021/03/08 06:29:12;;;;;;;3.17;1.20;;;;;;;;;;10347634;28;20030;-64
2021/03/08 06:34:10;;;;;;;3.37;1.67;;;;;;;;;;10353929;28;20067;-64
2021/03/08 06:39:09;;;;;;;2.03;1.20;;;;;;;;;;10358369;28;20036;-64
2021/03/08 06:44:06;;;;;;;4.43;1.08;;;;;;;;;;10364036;28;20132;-64
2021/03/08 06:49:04;;;;;;;3.80;1.20;;;;;;;;;;10370019;28;20542;-63
2021/03/08 06:54:16;;;;;;;2.33;0.97;;;;;;;;;;10362121;28;20287;-62
2021/03/08 06:59:13;;;;;;;1.15;1.00;;;;;;;;;;10363460;28;20032;-62
2021/03/08 07:04:12;;;;;;;3.60;1.50;;;;;;;;;;10342353;28;20511;-63
2021/03/08 07:09:09;;;;;;;;;;;;;;;;;;10330014;28;20041;-63
2021/03/08 07:14:16;;;;;;;2.47;1.38;;;;;;;;;;10335922;28;19925;-62
2021/03/08 07:19:13;;;;;;;1.15;1.05;;;;;;;;;;10357994;28;21003;-62
2021/03/08 07:24:13;;;;;;;3.10;0.93;;;;;;;;;;10355747;28;20036;-62
2021/03/08 07:29:11;;;;;;;3.20;1.33;;;;;;;;;;10359266;28;20048;-61
2021/03/08 07:34:09;;;;;;;2.63;1.30;;;;;;;;;;10371370;28;20610;-63
2021/03/08 07:39:10;;;;;;;0.70;0.70;;;;;;;;;;10348290;28;21793;-61
2021/03/08 07:44:08;;;;;;;3.85;0.80;;;;;;;;;;10341747;28;20076;-62
2021/03/08 07:49:06;;;;;;;0.35;0.35;;;;;;;;;;10359325;28;20057;-60
2021/03/08 07:54:05;;;;;;;0.73;0.68;;;;;;;;;;10343691;28;20068;-60
2021/03/08 07:59:02;;;;;;;0.90;0.85;;;;;;;;;;10347086;28;20025;-60
2021/03/08 08:04:00;;;;;;;2.73;1.10;;;;;;;;;;10368626;28;20037;-62
2021/03/08 08:08:58;;;;;;;1.90;0.50;;;;;;;;;;10352985;28;20127;-62
2021/03/08 08:14:00;;;;;;;0.35;0.35;;;;;;;;;;10335207;28;20510;-62
2021/03/08 08:19:00;;;;;;;0.73;0.70;;;;;;;;;;10355202;28;20043;-61
2021/03/08 08:24:04;;;;;;;1.40;1.17;;;;;;;;;;10342411;28;20584;-61
2021/03/08 08:29:01;;;;;;;0.50;0.50;;;;;;;;;;10353769;28;20143;-62
2021/03/08 08:33:58;;;;;;;2.40;0.67;;;;;;;;;;10357671;28;20125;-62
2021/03/08 08:38:59;;;;;;;2.73;0.87;;;;;;;;;;10341266;28;20033;-62
2021/03/08 08:44:15;;;;;;;1.65;1.25;;;;;;;;;;10340753;28;20036;-62
2021/03/08 08:49:13;;;;;;;2.13;0.77;;;;;;;;;;10354603;28;20559;-62
2021/03/08 08:54:10;;;;;;;;;;;;;;;;;;10324960;28;20524;-61
2021/03/08 08:59:16;;;;;;;2.50;1.00;;;;;;;;;;10360726;28;19920;-62
2021/03/08 09:04:15;;;;;;;3.05;0.80;;;;;;;;;;10358831;28;20107;-61
2021/03/08 09:09:14;;;;;;;3.30;0.88;;;;;;;;;;10341839;28;20779;-63
2021/03/08 09:14:21;;;;;;;1.50;0.85;;;;;;;;;;10346104;28;20096;-62
2021/03/08 09:19:19;;;;;;;4.18;0.50;;;;;;;;;;10347985;28;20043;-61
2021/03/08 09:24:17;;;;;;;;;;;;;;;;;;10327284;28;20071;-62
2021/03/08 09:29:21;;;;;;;3.15;0.68;;;;;;;;;;10363338;28;20004;-63
2021/03/08 09:34:18;;;;;;;2.60;0.82;;;;;;;;;;10336759;28;20410;-62
2021/03/08 09:39:15;;;;;;;5.80;1.00;;;;;;;;;;10331536;28;20723;-62
2021/03/08 09:44:13;;;;;;;2.40;0.87;;;;;;;;;;10348419;28;20595;-63
2021/03/08 09:49:10;;;;;;;2.07;1.10;;;;;;;;;;10358452;28;20509;-62
2021/03/08 09:54:08;;;;;;;1.70;0.50;;;;;;;;;;10346468;28;20048;-63
2021/03/08 09:59:08;;;;;;;0.67;0.40;;;;;;;;;;10354814;28;20036;-63
2021/03/08 10:04:06;;;;;;;5.57;0.63;;;;;;;;;;10330635;28;20032;-63
2021/03/08 10:09:20;;;;;;;0.50;0.40;;;;;;;;;;10332861;28;20037;-61
2021/03/08 10:14:27;;;;;;;0.30;0.30;;;;;;;;;;10355943;28;20040;-61
2021/03/08 10:19:25;;;;;;;1.83;0.65;;;;;;;;;;10350613;28;20583;-60
2021/03/08 10:24:36;;;;;;;0.30;0.30;;;;;;;;;;10330988;28;20126;-60
2021/03/08 10:29:33;;;;;;;1.88;0.77;;;;;;;;;;10328485;28;20033;-60
2021/03/08 10:34:31;;;;;;;1.33;1.10;;;;;;;;;;10329536;28;20494;-61
2021/03/08 10:39:28;;;;;;;0.20;0.20;;;;;;;;;;10347993;28;20036;-60
2021/03/08 10:44:26;;;;;;;0.33;0.30;;;;;;;;;;10349580;28;20050;-61
2021/03/08 10:49:24;;;;;;;2.08;1.23;;;;;;;;;;10347127;28;20055;-61
2021/03/08 10:54:22;;;;;;;0.40;0.37;;;;;;;;;;10357306;28;20771;-61
2021/03/08 10:59:31;;;;;;;0.35;0.30;;;;;;;;;;10351658;28;20434;-61
2021/03/08 11:04:29;;;;;;;0.20;0.20;;;;;;;;;;10323244;28;20040;-60
2021/03/08 11:09:27;;;;;;;0.93;0.20;;;;;;;;;;10345582;28;20040;-61
2021/03/08 11:14:25;;;;;;;;;;;;;;;;;;10356831;28;20268;-62
2021/03/08 11:19:24;;;;;;;0.50;0.40;;;;;;;;;;10347984;28;19913;-60
2021/03/08 11:24:22;;;;;;;0.30;0.17;;;;;;;;;;10343506;28;20037;-61
2021/03/08 11:29:23;;;;;;;0.68;0.20;;;;;;;;;;10338331;28;20044;-65
2021/03/08 11:34:40;;;;;;;0.50;0.35;;;;;;;;;;10350386;28;20118;-62
2021/03/08 11:39:41;;;;;;;0.50;0.47;;;;;;;;;;10336621;28;22156;-60
2021/03/08 11:44:38;;;;;;;0.20;0.10;;;;;;;;;;10346684;28;20032;-60
2021/03/08 11:49:36;;;;;;;0.30;0.30;;;;;;;;;;10348674;28;20037;-60
2021/03/08 11:54:33;;;;;;;0.20;0.20;;;;;;;;;;10339185;28;20032;-60
2021/03/08 11:59:31;;;;;;;0.30;0.30;;;;;;;;;;10350471;28;20029;-60
2021/03/08 12:04:28;;;;;;;0.63;0.50;;;;;;;;;;10357809;28;20145;-60
2021/03/08 12:09:26;;;;;;;2.43;0.80;;;;;;;;;;10358986;28;20044;-59
2021/03/08 12:14:23;;;;;;;0.87;0.47;;;;;;;;;;10351644;28;20033;-60
2021/03/08 12:19:20;;;;;;;0.70;0.50;;;;;;;;;;10360517;28;20039;-61
2021/03/08 12:24:18;;;;;;;4.03;0.50;;;;;;;;;;10330985;28;20032;-60
2021/03/08 12:29:15;;;;;;;2.90;0.60;;;;;;;;;;10359076;28;20044;-59
2021/03/08 12:34:13;;;;;;;3.33;0.60;;;;;;;;;;10353780;28;20119;-59
2021/03/08 12:39:10;;;;;;;0.53;0.33;;;;;;;;;;10348953;28;21244;-61
2021/03/08 12:44:08;;;;;;;1.23;0.60;;;;;;;;;;10348491;28;20040;-61
2021/03/08 12:49:05;;;;;;;0.40;0.30;;;;;;;;;;10358960;28;20033;-62
2021/03/08 12:54:03;;;;;;;1.00;0.40;;;;;;;;;;10350967;28;20622;-59
2021/03/08 12:59:01;;;;;;;0.83;0.57;;;;;;;;;;10350733;28;20254;-63
2021/03/08 13:03:58;;;;;;;1.58;0.63;;;;;;;;;;10351682;28;20437;-62
2021/03/08 13:08:56;;;;;;;2.57;0.33;;;;;;;;;;10347374;28;20086;-59
2021/03/08 13:13:53;;;;;;;0.37;0.27;;;;;;;;;;10343518;28;20056;-60
2021/03/08 13:18:51;;;;;;;1.13;0.33;;;;;;;;;;10357593;28;20491;-61
2021/03/08 13:23:49;;;;;;;3.60;0.53;;;;;;;;;;10357952;28;20125;-60
2021/03/08 13:28:49;;;;;;;0.63;0.60;;;;;;;;;;10352396;28;20040;-61
2021/03/08 13:33:46;;;;;;;0.55;0.38;;;;;;;;;;10355645;28;20049;-58
2021/03/08 13:38:43;;;;;;;2.73;0.80;;;;;;;;;;10344872;28;20037;-59
2021/03/08 13:43:41;;;;;;;0.30;0.30;;;;;;;;;;10355367;28;20052;-59
2021/03/08 13:48:39;;;;;;;0.90;0.40;;;;;;;;;;10354885;28;20040;-61
2021/03/08 13:53:36;;;;;;;;;;;;;;;;;;10334794;28;20032;-61
2021/03/08 13:58:34;;;;;;;0.30;0.20;;;;;;;;;;10344402;28;19916;-62
2021/03/08 14:03:31;;;;;;;2.07;0.40;;;;;;;;;;10357825;28;20128;-61
2021/03/08 14:08:29;;;;;;;1.43;0.73;;;;;;;;;;10367995;28;20418;-61
2021/03/08 14:13:26;;;;;;;0.70;0.50;;;;;;;;;;10372830;28;20070;-61
2021/03/08 14:18:23;;;;;;;0.90;0.33;;;;;;;;;;10356297;28;20032;-61
2021/03/08 14:23:21;;;;;;;2.00;0.40;;;;;;;;;;10366039;28;20494;-61
2021/03/08 14:28:18;;;;;;;1.20;0.40;;;;;;;;;;10360170;28;20048;-61
2021/03/08 14:33:16;;;;;;;2.53;0.50;;;;;;;;;;10353212;28;20086;-61
2021/03/08 14:38:14;;;;;;;0.50;0.40;;;;;;;;;;10362820;28;20351;-61
2021/03/08 14:43:11;;;;;;;1.63;0.50;;;;;;;;;;10362254;28;20054;-63
2021/03/08 14:48:09;;;;;;;0.37;0.30;;;;;;;;;;10352284;28;20055;-61
2021/03/08 14:53:06;;;;;;;2.27;0.40;;;;;;;;;;10360153;28;20493;-61
2021/03/08 14:58:03;;;;;;;0.53;0.20;;;;;;;;;;10348719;28;20108;-60
2021/03/08 15:03:01;;;;;;;0.63;0.40;;;;;;;;;;10359924;28;20059;-61
2021/03/08 15:07:59;;;;;;;2.07;0.43;;;;;;;;;;10364984;28;20041;-62
2021/03/08 15:12:56;;;;;;;0.65;0.30;;;;;;;;;;10356122;28;20064;-62
2021/03/08 15:17:54;;;;;;;0.77;0.27;;;;;;;;;;10349807;28;20869;-59
2021/03/08 15:22:52;;;;;;;1.93;0.30;;;;;;;;;;10359809;28;20023;-62
2021/03/08 15:27:50;;;;;;;1.98;0.40;;;;;;;;;;10365914;28;20449;-60
2021/03/08 15:32:47;;;;;;;0.53;0.40;;;;;;;;;;10352047;28;20124;-62
2021/03/08 15:37:44;;;;;;;3.27;0.40;;;;;;;;;;10363081;28;20467;-61
2021/03/08 15:42:42;;;;;;;2.07;0.30;;;;;;;;;;10370092;28;20033;-59
2021/03/08 15:47:39;;;;;;;0.60;0.40;;;;;;;;;;10365920;28;20041;-59
2021/03/08 15:52:36;;;;;;;0.93;0.30;;;;;;;;;;10356213;28;20033;-60
2021/03/08 15:57:34;;;;;;;0.60;0.40;;;;;;;;;;10351983;28;20188;-61
2021/03/08 16:02:32;;;;;;;0.90;0.40;;;;;;;;;;10363723;28;20682;-61
2021/03/08 16:07:30;;;;;;;;;;;;;;;;;;10360681;28;20045;-61
2021/03/08 16:12:27;;;;;;;0.98;0.50;;;;;;;;;;10367091;28;19912;-59
2021/03/08 16:17:27;;;;;;;0.40;0.30;;;;;;;;;;10352095;28;20032;-62
2021/03/08 16:22:25;;;;;;;2.05;0.50;;;;;;;;;;10370765;28;20558;-62
2021/03/08 16:27:23;;;;;;;0.80;0.50;;;;;;;;;;10365831;28;20409;-60
2021/03/08 16:32:22;;;;;;;0.47;0.40;;;;;;;;;;10348301;28;20036;-62
2021/03/08 16:37:20;;;;;;;0.73;0.50;;;;;;;;;;10363684;28;20036;-64
2021/03/08 16:42:17;;;;;;;0.97;0.40;;;;;;;;;;10359313;28;20131;-61
2021/03/08 16:47:14;;;;;;;7.20;1.80;;;;;;;;;;10374185;28;20788;-61
2021/03/08 16:52:12;;;;;;;1.17;0.70;;;;;;;;;;10340009;22;20087;-66
2021/03/08 16:57:09;;;;;;;2.13;0.90;;;;;;;;;;10323013;28;20037;-65
2021/03/08 17:02:07;;;;;;;2.77;0.83;;;;;;;;;;10325060;28;20062;-66
2021/03/08 17:07:04;;;;;;;1.57;0.60;;;;;;;;;;10340254;28;20036;-65
2021/03/08 17:12:02;;;;;;;0.43;0.33;;;;;;;;;;10326988;28;20048;-65
2021/03/08 17:16:59;;;;;;;1.80;0.60;;;;;;;;;;10331703;28;21015;-66
2021/03/08 17:21:56;;;;;;;1.07;0.60;;;;;;;;;;10362764;22;20044;-67
2021/03/08 17:26:54;;;;;;;0.40;0.33;;;;;;;;;;10241080;28;20402;-66
2021/03/08 17:31:51;;;;;;;1.73;0.90;;;;;;;;;;10286143;28;20033;-66
2021/03/08 17:36:49;;;;;;;1.33;0.50;;;;;;;;;;10289702;28;20053;-67
2021/03/08 17:41:46;;;;;;;1.30;0.80;;;;;;;;;;10287234;28;20025;-65
2021/03/08 17:46:44;;;;;;;0.87;0.70;;;;;;;;;;10269657;28;20038;-65
2021/03/08 17:51:41;;;;;;;3.30;0.90;;;;;;;;;;10252800;28;20648;-67
2021/03/08 17:56:39;;;;;;;4.30;0.87;;;;;;;;;;10277190;28;20045;-66
2021/03/08 18:01:36;;;;;;;1.70;0.93;;;;;;;;;;10329451;22;21590;-65
2021/03/08 18:06:34;;;;;;;0.97;0.60;;;;;;;;;;10364588;28;20565;-66
2021/03/08 18:11:32;;;;;;;0.82;0.60;;;;;;;;;;10357028;28;20139;-64
2021/03/08 18:16:29;;;;;;;1.07;0.83;;;;;;;;;;10369848;28;20038;-64
2021/03/08 18:21:27;;;;;;;1.23;0.80;;;;;;;;;;10371937;28;20036;-64
2021/03/08 18:26:24;;;;;;;34.60;14.50;;;;;;;;;;10364240;28;20094;-64
2021/03/08 18:31:21;;;;;;;10.43;4.67;;;;;;;;;;10354389;28;20103;-64
2021/03/08 18:36:19;;;;;;;14.93;6.83;;;;;;;;;;10306091;22;20047;-64
2021/03/08 18:41:16;;;;;;;12.30;6.17;;;;;;;;;;10343624;28;20047;-65
2021/03/08 18:46:14;;;;;;;2.93;2.13;;;;;;;;;;10274261;28;20041;-65
2021/03/08 18:51:11;;;;;;;2.83;2.03;;;;;;;;;;10284024;28;20132;-64
2021/03/08 18:56:09;;;;;;;3.87;1.83;;;;;;;;;;10267981;28;20049;-65
2021/03/08 19:01:06;;;;;;;4.57;1.80;;;;;;;;;;10268043;28;20174;-64
2021/03/08 19:06:05;;;;;;;4.20;1.87;;;;;;;;;;10274942;28;20041;-64
2021/03/08 19:11:04;;;;;;;3.03;1.67;;;;;;;;;;10292916;28;20041;-65
2021/03/08 19:16:01;;;;;;;1.08;1.05;;;;;;;;;;10266768;28;20523;-64
2021/03/08 19:20:59;;;;;;;82.07;23.90;;;;;;;;;;10269638;28;20372;-64
2021/03/08 19:25:57;;;;;;;65.50;19.77;;;;;;;;;;10251558;28;20137;-64
2021/03/08 19:30:54;;;;;;;6.35;3.58;;;;;;;;;;10263589;28;20503;-64
2021/03/08 19:35:52;;;;;;;4.30;2.60;;;;;;;;;;10272041;28;20046;-64
2021/03/08 19:40:49;;;;;;;5.47;3.10;;;;;;;;;;10267757;28;20111;-64
2021/03/08 19:45:46;;;;;;;3.60;1.93;;;;;;;;;;10277862;28;20499;-65
2021/03/08 19:50:44;;;;;;;6.20;1.50;;;;;;;;;;10254138;28;20032;-65
2021/03/08 19:55:42;;;;;;;0.97;0.87;;;;;;;;;;10258053;28;20041;-66
2021/03/08 20:00:39;;;;;;;2.70;2.50;;;;;;;;;;10273208;28;20052;-65
2021/03/08 20:05:37;;;;;;;3.60;2.00;;;;;;;;;;10243343;28;20517;-65
2021/03/08 20:10:35;;;;;;;3.30;1.67;;;;;;;;;;10278510;28;20776;-66
2021/03/08 20:15:32;;;;;;;5.57;1.50;;;;;;;;;;10268174;28;20034;-65
2021/03/08 20:20:30;;;;;;;1.60;0.83;;;;;;;;;;10252006;28;20293;-65
2021/03/08 20:25:28;;;;;;;1.00;0.93;;;;;;;;;;10263088;28;20037;-65
2021/03/08 20:30:27;;;;;;;0.98;0.90;;;;;;;;;;10247316;28;20041;-65
2021/03/08 20:35:24;;;;;;;1.38;0.85;;;;;;;;;;10271222;28;20446;-66
2021/03/08 20:40:22;;;;;;;0.63;0.63;;;;;;;;;;10289024;28;20102;-66
2021/03/08 20:45:19;;;;;;;1.63;0.80;;;;;;;;;;10281302;28;20034;-65
2021/03/08 20:50:17;;;;;;;5.00;0.90;;;;;;;;;;10296951;28;20041;-65
2021/03/08 20:55:14;;;;;;;0.90;0.90;;;;;;;;;;10262429;28;20114;-66
2021/03/08 21:00:13;;;;;;;2.67;1.23;;;;;;;;;;10273449;28;20037;-65
2021/03/08 21:05:11;;;;;;;0.93;0.93;;;;;;;;;;10264620;28;20038;-65
2021/03/08 21:10:10;;;;;;;1.27;0.80;;;;;;;;;;10259284;28;20446;-65
2021/03/08 21:15:09;;;;;;;2.97;0.80;;;;;;;;;;10295238;28;20049;-67
2021/03/08 21:20:06;;;;;;;;;;;;;;;;;;10285031;28;20686;-66
2021/03/08 21:25:04;;;;;;;1.80;1.05;;;;;;;;;;10276609;28;19919;-66
2021/03/08 21:30:04;;;;;;;2.38;0.70;;;;;;;;;;10272932;28;20045;-66
2021/03/08 21:35:01;;;;;;;0.57;0.57;;;;;;;;;;10273041;28;20037;-65
2021/03/08 21:39:59;;;;;;;2.57;0.90;;;;;;;;;;10279026;28;20030;-65
2021/03/08 21:44:57;;;;;;;0.60;0.60;;;;;;;;;;10294172;28;20164;-65
2021/03/08 21:49:54;;;;;;;3.60;0.90;;;;;;;;;;10272613;28;20025;-66
2021/03/08 21:54:52;;;;;;;1.70;0.50;;;;;;;;;;10278475;28;20112;-64
2021/03/08 21:59:49;;;;;;;2.80;0.83;;;;;;;;;;10250428;28;20551;-65
2021/03/08 22:04:47;;;;;;;2.50;1.23;;;;;;;;;;10266636;28;20627;-65
2021/03/08 22:09:44;;;;;;;0.63;0.60;;;;;;;;;;10270979;28;20076;-65
2021/03/08 22:14:42;;;;;;;0.60;0.60;;;;;;;;;;10264975;28;20032;-65
2021/03/08 22:19:40;;;;;;;0.90;0.77;;;;;;;;;;10254535;28;20045;-65
2021/03/08 22:24:37;;;;;;;2.83;0.87;;;;;;;;;;10284057;28;20997;-66
2021/03/08 22:29:34;;;;;;;0.80;0.80;;;;;;;;;;10274810;28;20083;-64
2021/03/08 22:34:32;;;;;;;0.93;0.90;;;;;;;;;;10265800;28;20037;-65
2021/03/08 22:39:29;;;;;;;1.90;0.67;;;;;;;;;;10279255;28;20033;-65
2021/03/08 22:44:27;;;;;;;1.10;1.03;;;;;;;;;;10268151;28;20033;-64
2021/03/08 22:49:24;;;;;;;1.30;0.80;;;;;;;;;;10292584;28;20037;-65
2021/03/08 22:54:25;;;;;;;1.80;0.90;;;;;;;;;;10285124;28;20518;-65
2021/03/08 22:59:22;;;;;;;0.68;0.68;;;;;;;;;;10274775;28;20529;-65
2021/03/08 23:04:20;;;;;;;2.33;0.97;;;;;;;;;;10273026;28;20056;-65
2021/03/08 23:09:17;;;;;;;1.93;1.33;;;;;;;;;;10268710;28;20033;-65
2021/03/08 23:14:15;;;;;;;0.80;0.80;;;;;;;;;;10272484;28;20068;-65
2021/03/08 23:19:12;;;;;;;5.90;1.57;;;;;;;;;;10263265;28;20057;-65
2021/03/08 23:24:09;;;;;;;2.13;1.43;;;;;;;;;;10274066;28;20055;-66
2021/03/08 23:29:07;;;;;;;3.03;1.27;;;;;;;;;;10276651;28;20045;-66
2021/03/08 23:34:05;;;;;;;3.80;1.43;;;;;;;;;;10272477;28;20033;-65
2021/03/08 23:39:03;;;;;;;2.37;1.50;;;;;;;;;;10265359;28;20129;-65
2021/03/08 23:44:00;;;;;;;2.97;1.45;;;;;;;;;;10248904;28;20041;-66
2021/03/08 23:48:58;;;;;;;3.77;1.40;;;;;;;;;;10272974;28;20041;-66
2021/03/08 23:53:55;;;;;;;1.40;1.07;;;;;;;;;;10263738;28;20553;-65
2021/03/08 23:58:53;;;;;;;3.90;1.20;;;;;;;;;;10268860;28;20496;-66
